createdAt,value
2023-01-31T08:50:40.576Z,18.35
2023-01-31T08:55:46.791Z,16.73
2023-01-31T09:00:52.865Z,17.08
2023-01-31T09:06:01.832Z,16.65
2023-01-31T09:11:06.918Z,17.71
2023-01-31T09:16:13.857Z,17.50
2023-01-31T09:21:21.552Z,16.43
2023-01-31T09:26:27.300Z,17.18
2023-01-31T09:31:34.974Z,17.44
2023-01-31T09:36:40.077Z,20.59
2023-01-31T09:41:56.315Z,20.18
2023-01-31T09:47:26.292Z,20.06
2023-01-31T09:52:33.875Z,23.02
2023-01-31T09:58:06.245Z,19.29
2023-01-31T10:03:38.264Z,17.38
2023-01-31T10:08:54.131Z,17.27
2023-01-31T10:14:21.122Z,19.51
2023-01-31T10:19:33.605Z,18.56
2023-01-31T10:24:47.526Z,17.54
2023-01-31T10:29:58.396Z,17.07
2023-01-31T10:35:14.948Z,16.70
2023-01-31T10:40:42.137Z,18.52
2023-01-31T10:45:47.099Z,18.12
2023-01-31T10:51:25.212Z,17.39
2023-01-31T10:56:36.589Z,18.40
2023-01-31T11:01:41.579Z,17.45
2023-01-31T11:06:46.599Z,19.13
2023-01-31T11:12:03.061Z,20.88
2023-01-31T11:17:10.841Z,17.77
2023-01-31T11:22:33.562Z,17.83
2023-01-31T11:27:44.457Z,19.07
2023-01-31T11:32:50.760Z,18.73
2023-01-31T11:37:58.742Z,19.90
2023-01-31T11:43:06.782Z,17.98
2023-01-31T11:48:22.051Z,19.26
2023-01-31T11:53:43.257Z,19.41
2023-01-31T11:58:52.264Z,19.33
2023-01-31T12:04:05.183Z,20.85
2023-01-31T12:09:27.237Z,19.66
2023-01-31T12:14:44.469Z,19.30
2023-01-31T12:20:26.959Z,18.90
2023-01-31T12:25:56.637Z,20.71
2023-01-31T12:31:16.846Z,19.50
2023-01-31T12:36:44.020Z,18.82
2023-01-31T12:42:16.171Z,18.59
2023-01-31T12:47:47.088Z,17.98
2023-01-31T12:53:01.149Z,17.76
2023-01-31T12:58:28.470Z,18.32
2023-01-31T13:04:07.323Z,17.37
2023-01-31T13:09:28.530Z,17.78
2023-01-31T13:14:45.701Z,18.21
2023-01-31T13:19:52.765Z,18.28
2023-01-31T13:25:20.297Z,17.53
2023-01-31T13:30:42.798Z,17.76
2023-01-31T13:35:58.499Z,17.91
2023-01-31T13:41:07.737Z,18.14
2023-01-31T13:46:20.634Z,18.01
2023-01-31T13:51:45.426Z,18.19
2023-01-31T13:56:57.791Z,18.75
2023-01-31T14:02:11.342Z,19.14
2023-01-31T14:07:23.005Z,19.01
2023-01-31T14:12:37.029Z,19.27
2023-01-31T14:17:43.612Z,19.92
2023-01-31T14:23:39.380Z,20.32
2023-01-31T14:28:51.110Z,20.21
2023-01-31T14:34:00.807Z,20.66
2023-01-31T14:39:32.598Z,20.66
2023-01-31T14:45:13.719Z,20.72
2023-01-31T14:50:40.091Z,20.68
2023-01-31T14:56:31.648Z,21.11
2023-01-31T15:01:43.159Z,21.72
2023-01-31T15:06:56.228Z,21.38
2023-01-31T15:12:07.711Z,22.19
2023-01-31T15:17:36.285Z,22.25
2023-01-31T15:22:44.758Z,22.21
2023-01-31T15:27:52.694Z,22.38
2023-01-31T15:33:23.227Z,22.91
2023-01-31T15:38:49.431Z,22.78
2023-01-31T15:44:12.168Z,22.89
2023-01-31T15:49:38.969Z,22.84
2023-01-31T15:54:57.485Z,23.16
2023-01-31T16:00:03.615Z,23.28
2023-01-31T16:05:23.085Z,23.45
2023-01-31T16:10:31.276Z,22.89
2023-01-31T16:15:39.752Z,23.05
2023-01-31T16:20:52.740Z,23.08
2023-01-31T16:26:29.493Z,23.69
2023-01-31T16:31:41.073Z,23.73
2023-01-31T16:36:56.906Z,24.06
2023-01-31T16:42:03.604Z,23.50
2023-01-31T16:47:11.036Z,24.12
2023-01-31T16:52:31.674Z,24.17
2023-01-31T16:57:41.804Z,24.15
2023-01-31T17:02:48.484Z,24.32
2023-01-31T17:07:55.258Z,24.73
2023-01-31T17:13:12.583Z,24.73
2023-01-31T17:18:20.197Z,24.40
2023-01-31T17:23:25.440Z,24.89
2023-01-31T17:28:31.547Z,24.59
2023-01-31T17:33:37.940Z,24.61
2023-01-31T17:38:45.581Z,24.31
2023-01-31T17:43:52.812Z,24.88
2023-01-31T17:48:58.052Z,24.50
2023-01-31T17:54:04.695Z,24.54
2023-01-31T17:59:25.396Z,24.82
2023-01-31T18:04:32.847Z,24.59
2023-01-31T18:09:37.797Z,24.65
2023-01-31T18:14:42.791Z,23.70
2023-01-31T18:19:48.128Z,23.63
2023-01-31T18:24:54.118Z,23.61
2023-01-31T18:30:00.168Z,23.32
2023-01-31T18:35:05.798Z,23.82
2023-01-31T18:40:12.868Z,23.76
2023-01-31T18:45:18.117Z,23.66
2023-01-31T18:50:23.222Z,23.60
2023-01-31T18:55:28.288Z,23.45
2023-01-31T19:00:34.175Z,23.24
2023-01-31T19:05:41.324Z,23.30
2023-01-31T19:10:46.550Z,23.08
2023-01-31T19:15:52.237Z,22.60
2023-01-31T19:20:58.543Z,22.85
2023-01-31T19:26:05.098Z,23.20
2023-01-31T19:31:15.790Z,23.01
2023-01-31T19:36:24.452Z,22.87
2023-01-31T19:41:30.765Z,22.42
2023-01-31T19:46:38.172Z,22.33
2023-01-31T19:51:44.143Z,21.96
2023-01-31T19:56:49.269Z,22.36
2023-01-31T20:01:54.515Z,21.88
2023-01-31T20:07:00.569Z,21.70
2023-01-31T20:12:05.476Z,21.60
2023-01-31T20:17:12.021Z,21.71
2023-01-31T20:22:19.191Z,21.49
2023-01-31T20:27:25.485Z,21.69
2023-01-31T20:32:30.833Z,21.80
2023-01-31T20:37:36.194Z,22.21
2023-01-31T20:42:41.488Z,21.85
2023-01-31T20:47:46.235Z,21.37
2023-01-31T20:52:54.545Z,21.25
2023-01-31T20:58:00.830Z,21.08
2023-01-31T21:03:08.195Z,20.95
2023-01-31T21:08:13.457Z,21.71
2023-01-31T21:13:18.961Z,21.28
2023-01-31T21:18:28.545Z,20.95
2023-01-31T21:23:34.792Z,21.93
2023-01-31T21:28:45.046Z,21.41
2023-01-31T21:33:53.983Z,21.27
2023-01-31T21:39:00.602Z,21.14
2023-01-31T21:44:06.575Z,21.04
2023-01-31T21:49:11.783Z,21.39
2023-01-31T21:54:19.036Z,21.43
2023-01-31T21:59:25.563Z,21.71
2023-01-31T22:04:32.473Z,21.60
2023-01-31T22:09:38.985Z,20.70
2023-01-31T22:14:45.363Z,21.02
2023-01-31T22:19:50.423Z,21.02
2023-01-31T22:24:55.604Z,20.83
2023-01-31T22:30:15.147Z,20.69
2023-01-31T22:35:22.466Z,20.97
2023-01-31T22:40:29.183Z,20.49
2023-01-31T22:45:34.220Z,21.35
2023-01-31T22:50:39.438Z,20.83
2023-01-31T22:55:44.889Z,20.75
2023-01-31T23:00:51.960Z,21.16
2023-01-31T23:05:58.341Z,21.25
2023-01-31T23:11:14.561Z,20.78
2023-01-31T23:16:23.178Z,20.67
2023-01-31T23:21:28.478Z,20.93
2023-01-31T23:26:38.052Z,21.47
2023-01-31T23:31:44.417Z,21.78
2023-01-31T23:36:49.722Z,21.50
2023-01-31T23:41:55.031Z,21.88
2023-01-31T23:47:00.327Z,22.09
2023-01-31T23:52:07.543Z,21.68
2023-01-31T23:57:14.657Z,20.91
